sensor_id;sensor_type;location;lat;lon;timestamp;P1;durP1;ratioP1;P2;durP2;ratioP2
30948;SDS011;17637;51.984;21.208;2024-02-21T00:00:05;19.98;;;7.93;;
30948;SDS011;17637;51.984;21.208;2024-02-21T00:02:37;24.13;;;8.40;;
30948;SDS011;17637;51.984;21.208;2024-02-21T00:05:09;27.00;;;9.95;;
30948;SDS011;17637;51.984;21.208;2024-02-21T00:07:41;27.77;;;11.18;;
30948;SDS011;17637;51.984;21.208;2024-02-21T00:10:13;27.17;;;10.15;;
30948;SDS011;17637;51.984;21.208;2024-02-21T00:12:45;19.50;;;8.57;;
30948;SDS011;17637;51.984;21.208;2024-02-21T00:15:17;17.17;;;7.93;;
30948;SDS011;17637;51.984;21.208;2024-02-21T00:17:48;23.42;;;7.97;;
30948;SDS011;17637;51.984;21.208;2024-02-21T00:20:20;21.67;;;8.00;;
30948;SDS011;17637;51.984;21.208;2024-02-21T00:22:52;18.52;;;7.85;;
30948;SDS011;17637;51.984;21.208;2024-02-21T00:25:24;20.50;;;7.78;;
30948;SDS011;17637;51.984;21.208;2024-02-21T00:27:56;19.60;;;7.18;;
30948;SDS011;17637;51.984;21.208;2024-02-21T00:30:31;18.33;;;7.32;;
30948;SDS011;17637;51.984;21.208;2024-02-21T00:33:03;20.25;;;7.97;;
30948;SDS011;17637;51.984;21.208;2024-02-21T00:35:35;19.40;;;7.18;;
30948;SDS011;17637;51.984;21.208;2024-02-21T00:38:07;15.23;;;7.22;;
30948;SDS011;17637;51.984;21.208;2024-02-21T00:40:38;21.05;;;7.45;;
30948;SDS011;17637;51.984;21.208;2024-02-21T00:43:10;18.05;;;7.05;;
30948;SDS011;17637;51.984;21.208;2024-02-21T00:45:43;20.42;;;6.75;;
30948;SDS011;17637;51.984;21.208;2024-02-21T00:48:14;15.70;;;6.72;;
30948;SDS011;17637;51.984;21.208;2024-02-21T00:50:46;13.75;;;5.90;;
30948;SDS011;17637;51.984;21.208;2024-02-21T00:53:18;22.33;;;6.65;;
30948;SDS011;17637;51.984;21.208;2024-02-21T00:55:50;18.15;;;6.65;;
30948;SDS011;17637;51.984;21.208;2024-02-21T00:58:22;16.30;;;6.18;;
30948;SDS011;17637;51.984;21.208;2024-02-21T01:00:55;23.10;;;7.65;;
30948;SDS011;17637;51.984;21.208;2024-02-21T01:03:27;26.13;;;9.60;;
30948;SDS011;17637;51.984;21.208;2024-02-21T01:05:59;22.67;;;8.45;;
30948;SDS011;17637;51.984;21.208;2024-02-21T01:08:30;23.10;;;8.65;;
30948;SDS011;17637;51.984;21.208;2024-02-21T01:11:02;18.85;;;6.60;;
30948;SDS011;17637;51.984;21.208;2024-02-21T01:13:34;15.98;;;7.03;;
30948;SDS011;17637;51.984;21.208;2024-02-21T01:16:06;23.55;;;8.05;;
30948;SDS011;17637;51.984;21.208;2024-02-21T01:18:38;17.67;;;7.15;;
30948;SDS011;17637;51.984;21.208;2024-02-21T01:21:11;17.08;;;7.13;;
30948;SDS011;17637;51.984;21.208;2024-02-21T01:23:43;20.20;;;6.82;;
30948;SDS011;17637;51.984;21.208;2024-02-21T01:26:15;20.40;;;6.70;;
30948;SDS011;17637;51.984;21.208;2024-02-21T01:28:47;20.48;;;6.68;;
30948;SDS011;17637;51.984;21.208;2024-02-21T01:31:19;22.20;;;7.32;;
30948;SDS011;17637;51.984;21.208;2024-02-21T01:33:51;20.52;;;6.50;;
30948;SDS011;17637;51.984;21.208;2024-02-21T01:36:23;17.02;;;6.60;;
30948;SDS011;17637;51.984;21.208;2024-02-21T01:38:55;16.17;;;7.45;;
30948;SDS011;17637;51.984;21.208;2024-02-21T01:41:29;23.15;;;7.57;;
30948;SDS011;17637;51.984;21.208;2024-02-21T01:44:02;18.00;;;6.78;;
30948;SDS011;17637;51.984;21.208;2024-02-21T01:46:34;21.35;;;7.15;;
30948;SDS011;17637;51.984;21.208;2024-02-21T01:49:06;21.02;;;7.15;;
30948;SDS011;17637;51.984;21.208;2024-02-21T01:51:38;18.00;;;6.72;;
30948;SDS011;17637;51.984;21.208;2024-02-21T01:54:11;21.98;;;7.35;;
30948;SDS011;17637;51.984;21.208;2024-02-21T01:56:47;16.65;;;6.82;;
30948;SDS011;17637;51.984;21.208;2024-02-21T01:59:19;19.58;;;7.15;;
30948;SDS011;17637;51.984;21.208;2024-02-21T02:01:53;20.83;;;7.03;;
30948;SDS011;17637;51.984;21.208;2024-02-21T02:04:27;22.50;;;7.63;;
30948;SDS011;17637;51.984;21.208;2024-02-21T02:07:00;21.65;;;7.60;;
30948;SDS011;17637;51.984;21.208;2024-02-21T02:09:34;23.63;;;7.88;;
30948;SDS011;17637;51.984;21.208;2024-02-21T02:12:07;22.40;;;7.55;;
30948;SDS011;17637;51.984;21.208;2024-02-21T02:14:39;23.02;;;7.75;;
30948;SDS011;17637;51.984;21.208;2024-02-21T02:17:11;18.77;;;7.68;;
30948;SDS011;17637;51.984;21.208;2024-02-21T02:19:43;23.67;;;7.93;;
30948;SDS011;17637;51.984;21.208;2024-02-21T02:22:28;22.27;;;8.48;;
30948;SDS011;17637;51.984;21.208;2024-02-21T02:25:00;22.13;;;7.43;;
30948;SDS011;17637;51.984;21.208;2024-02-21T02:27:33;25.55;;;8.20;;
30948;SDS011;17637;51.984;21.208;2024-02-21T02:30:12;21.25;;;7.95;;
30948;SDS011;17637;51.984;21.208;2024-02-21T02:32:45;20.65;;;7.38;;
30948;SDS011;17637;51.984;21.208;2024-02-21T02:35:20;19.77;;;8.48;;
30948;SDS011;17637;51.984;21.208;2024-02-21T02:37:52;24.80;;;8.45;;
30948;SDS011;17637;51.984;21.208;2024-02-21T02:40:24;25.73;;;8.52;;
30948;SDS011;17637;51.984;21.208;2024-02-21T02:42:56;18.98;;;8.13;;
30948;SDS011;17637;51.984;21.208;2024-02-21T02:45:28;20.15;;;8.32;;
30948;SDS011;17637;51.984;21.208;2024-02-21T02:48:00;26.55;;;9.77;;
30948;SDS011;17637;51.984;21.208;2024-02-21T02:50:32;26.73;;;9.18;;
30948;SDS011;17637;51.984;21.208;2024-02-21T02:53:04;27.15;;;10.35;;
30948;SDS011;17637;51.984;21.208;2024-02-21T02:55:36;25.80;;;9.63;;
30948;SDS011;17637;51.984;21.208;2024-02-21T02:58:08;25.40;;;9.10;;
30948;SDS011;17637;51.984;21.208;2024-02-21T03:00:40;20.83;;;8.35;;
30948;SDS011;17637;51.984;21.208;2024-02-21T03:03:12;23.92;;;9.93;;
30948;SDS011;17637;51.984;21.208;2024-02-21T03:05:44;20.48;;;9.00;;
30948;SDS011;17637;51.984;21.208;2024-02-21T03:08:17;29.25;;;11.35;;
30948;SDS011;17637;51.984;21.208;2024-02-21T03:10:49;25.13;;;9.90;;
30948;SDS011;17637;51.984;21.208;2024-02-21T03:13:21;23.02;;;9.70;;
30948;SDS011;17637;51.984;21.208;2024-02-21T03:15:53;24.75;;;10.88;;
30948;SDS011;17637;51.984;21.208;2024-02-21T03:18:25;23.15;;;9.88;;
30948;SDS011;17637;51.984;21.208;2024-02-21T03:20:57;29.05;;;10.55;;
30948;SDS011;17637;51.984;21.208;2024-02-21T03:23:29;27.20;;;10.73;;
30948;SDS011;17637;51.984;21.208;2024-02-21T03:26:01;26.02;;;10.27;;
30948;SDS011;17637;51.984;21.208;2024-02-21T03:28:33;21.02;;;9.65;;
30948;SDS011;17637;51.984;21.208;2024-02-21T03:31:05;27.08;;;11.95;;
30948;SDS011;17637;51.984;21.208;2024-02-21T03:33:37;33.17;;;11.77;;
30948;SDS011;17637;51.984;21.208;2024-02-21T03:36:13;25.65;;;11.70;;
30948;SDS011;17637;51.984;21.208;2024-02-21T03:38:46;25.38;;;11.90;;
30948;SDS011;17637;51.984;21.208;2024-02-21T03:41:19;28.45;;;11.95;;
30948;SDS011;17637;51.984;21.208;2024-02-21T03:43:53;31.75;;;13.25;;
30948;SDS011;17637;51.984;21.208;2024-02-21T03:46:25;31.10;;;13.55;;
30948;SDS011;17637;51.984;21.208;2024-02-21T03:48:57;30.08;;;13.88;;
30948;SDS011;17637;51.984;21.208;2024-02-21T03:51:29;36.05;;;14.48;;
30948;SDS011;17637;51.984;21.208;2024-02-21T03:54:01;38.30;;;15.25;;
30948;SDS011;17637;51.984;21.208;2024-02-21T03:56:36;29.52;;;14.13;;
30948;SDS011;17637;51.984;21.208;2024-02-21T03:59:09;26.90;;;12.85;;
30948;SDS011;17637;51.984;21.208;2024-02-21T04:01:41;30.17;;;13.68;;
30948;SDS011;17637;51.984;21.208;2024-02-21T04:04:13;33.00;;;14.38;;
30948;SDS011;17637;51.984;21.208;2024-02-21T04:06:48;27.58;;;14.90;;
30948;SDS011;17637;51.984;21.208;2024-02-21T04:09:21;30.00;;;15.30;;
30948;SDS011;17637;51.984;21.208;2024-02-21T04:11:53;36.50;;;18.10;;
30948;SDS011;17637;51.984;21.208;2024-02-21T04:14:25;29.63;;;14.98;;
30948;SDS011;17637;51.984;21.208;2024-02-21T04:16:57;35.72;;;16.20;;
30948;SDS011;17637;51.984;21.208;2024-02-21T04:19:29;33.65;;;16.55;;
30948;SDS011;17637;51.984;21.208;2024-02-21T04:22:02;41.72;;;17.38;;
30948;SDS011;17637;51.984;21.208;2024-02-21T04:24:34;31.35;;;14.30;;
30948;SDS011;17637;51.984;21.208;2024-02-21T04:27:07;35.88;;;18.08;;
30948;SDS011;17637;51.984;21.208;2024-02-21T04:29:38;22.85;;;12.95;;
30948;SDS011;17637;51.984;21.208;2024-02-21T04:32:11;33.13;;;14.05;;
30948;SDS011;17637;51.984;21.208;2024-02-21T04:34:43;39.42;;;17.15;;
30948;SDS011;17637;51.984;21.208;2024-02-21T04:37:15;27.08;;;14.25;;
30948;SDS011;17637;51.984;21.208;2024-02-21T04:39:48;38.15;;;16.17;;
30948;SDS011;17637;51.984;21.208;2024-02-21T04:42:20;38.47;;;16.25;;
30948;SDS011;17637;51.984;21.208;2024-02-21T04:44:52;32.92;;;16.42;;
30948;SDS011;17637;51.984;21.208;2024-02-21T04:47:24;28.13;;;14.57;;
30948;SDS011;17637;51.984;21.208;2024-02-21T04:49:56;29.08;;;14.40;;
30948;SDS011;17637;51.984;21.208;2024-02-21T04:52:28;32.22;;;14.23;;
30948;SDS011;17637;51.984;21.208;2024-02-21T04:55:02;33.05;;;14.63;;
30948;SDS011;17637;51.984;21.208;2024-02-21T04:57:34;37.20;;;16.35;;
30948;SDS011;17637;51.984;21.208;2024-02-21T05:00:06;39.88;;;17.35;;
30948;SDS011;17637;51.984;21.208;2024-02-21T05:02:38;36.42;;;17.05;;
30948;SDS011;17637;51.984;21.208;2024-02-21T05:05:10;33.60;;;16.42;;
30948;SDS011;17637;51.984;21.208;2024-02-21T05:07:43;33.25;;;17.95;;
30948;SDS011;17637;51.984;21.208;2024-02-21T05:10:15;40.28;;;19.20;;
30948;SDS011;17637;51.984;21.208;2024-02-21T05:12:47;43.20;;;19.92;;
30948;SDS011;17637;51.984;21.208;2024-02-21T05:15:19;42.42;;;18.48;;
30948;SDS011;17637;51.984;21.208;2024-02-21T05:17:50;40.05;;;17.63;;
30948;SDS011;17637;51.984;21.208;2024-02-21T05:20:22;27.02;;;15.85;;
30948;SDS011;17637;51.984;21.208;2024-02-21T05:22:54;28.63;;;15.52;;
30948;SDS011;17637;51.984;21.208;2024-02-21T05:25:27;39.47;;;18.92;;
30948;SDS011;17637;51.984;21.208;2024-02-21T05:27:59;31.25;;;15.23;;
30948;SDS011;17637;51.984;21.208;2024-02-21T05:30:33;36.58;;;18.00;;
30948;SDS011;17637;51.984;21.208;2024-02-21T05:33:05;27.00;;;15.63;;
30948;SDS011;17637;51.984;21.208;2024-02-21T05:35:38;35.40;;;17.60;;
30948;SDS011;17637;51.984;21.208;2024-02-21T05:38:10;35.00;;;18.55;;
30948;SDS011;17637;51.984;21.208;2024-02-21T05:40:46;29.65;;;15.98;;
30948;SDS011;17637;51.984;21.208;2024-02-21T05:43:18;23.33;;;13.93;;
30948;SDS011;17637;51.984;21.208;2024-02-21T05:45:50;31.52;;;15.90;;
30948;SDS011;17637;51.984;21.208;2024-02-21T05:48:22;35.47;;;17.58;;
30948;SDS011;17637;51.984;21.208;2024-02-21T05:50:55;53.42;;;28.83;;
30948;SDS011;17637;51.984;21.208;2024-02-21T05:53:27;55.90;;;32.65;;
30948;SDS011;17637;51.984;21.208;2024-02-21T05:55:59;46.13;;;26.02;;
30948;SDS011;17637;51.984;21.208;2024-02-21T05:58:31;36.85;;;21.77;;
30948;SDS011;17637;51.984;21.208;2024-02-21T06:01:04;37.83;;;20.17;;
30948;SDS011;17637;51.984;21.208;2024-02-21T06:03:38;40.85;;;21.20;;
30948;SDS011;17637;51.984;21.208;2024-02-21T06:06:10;38.67;;;19.98;;
30948;SDS011;17637;51.984;21.208;2024-02-21T06:08:42;37.22;;;19.15;;
30948;SDS011;17637;51.984;21.208;2024-02-21T06:11:14;36.58;;;18.42;;
30948;SDS011;17637;51.984;21.208;2024-02-21T06:13:47;32.65;;;19.25;;
30948;SDS011;17637;51.984;21.208;2024-02-21T06:16:19;47.67;;;25.88;;
30948;SDS011;17637;51.984;21.208;2024-02-21T06:18:51;42.85;;;21.45;;
30948;SDS011;17637;51.984;21.208;2024-02-21T06:21:23;35.03;;;18.20;;
30948;SDS011;17637;51.984;21.208;2024-02-21T06:23:55;37.13;;;20.20;;
30948;SDS011;17637;51.984;21.208;2024-02-21T06:26:27;42.00;;;20.90;;
30948;SDS011;17637;51.984;21.208;2024-02-21T06:28:59;38.45;;;19.67;;
30948;SDS011;17637;51.984;21.208;2024-02-21T06:31:34;36.83;;;19.23;;
30948;SDS011;17637;51.984;21.208;2024-02-21T06:34:07;37.40;;;22.25;;
30948;SDS011;17637;51.984;21.208;2024-02-21T06:36:39;38.58;;;19.25;;
30948;SDS011;17637;51.984;21.208;2024-02-21T06:39:11;41.58;;;20.02;;
30948;SDS011;17637;51.984;21.208;2024-02-21T06:41:43;41.30;;;22.90;;
30948;SDS011;17637;51.984;21.208;2024-02-21T06:44:15;46.90;;;23.77;;
30948;SDS011;17637;51.984;21.208;2024-02-21T06:46:47;39.08;;;20.88;;
30948;SDS011;17637;51.984;21.208;2024-02-21T06:49:19;43.40;;;22.27;;
30948;SDS011;17637;51.984;21.208;2024-02-21T06:51:51;49.38;;;22.92;;
30948;SDS011;17637;51.984;21.208;2024-02-21T06:54:23;43.90;;;22.13;;
30948;SDS011;17637;51.984;21.208;2024-02-21T06:56:55;46.15;;;25.38;;
30948;SDS011;17637;51.984;21.208;2024-02-21T06:59:27;45.95;;;25.30;;
30948;SDS011;17637;51.984;21.208;2024-02-21T07:01:59;53.70;;;25.30;;
30948;SDS011;17637;51.984;21.208;2024-02-21T07:04:32;45.58;;;24.17;;
30948;SDS011;17637;51.984;21.208;2024-02-21T07:07:04;48.45;;;26.55;;
30948;SDS011;17637;51.984;21.208;2024-02-21T07:09:37;48.13;;;24.45;;
30948;SDS011;17637;51.984;21.208;2024-02-21T07:12:09;47.92;;;23.88;;
30948;SDS011;17637;51.984;21.208;2024-02-21T07:14:41;41.88;;;22.45;;
30948;SDS011;17637;51.984;21.208;2024-02-21T07:17:13;50.35;;;25.20;;
30948;SDS011;17637;51.984;21.208;2024-02-21T07:19:45;51.60;;;24.95;;
30948;SDS011;17637;51.984;21.208;2024-02-21T07:22:17;53.55;;;28.92;;
30948;SDS011;17637;51.984;21.208;2024-02-21T07:24:50;50.65;;;27.70;;
30948;SDS011;17637;51.984;21.208;2024-02-21T07:27:22;49.97;;;24.25;;
30948;SDS011;17637;51.984;21.208;2024-02-21T07:29:54;49.78;;;24.58;;
30948;SDS011;17637;51.984;21.208;2024-02-21T07:32:26;43.90;;;25.35;;
30948;SDS011;17637;51.984;21.208;2024-02-21T07:34:58;47.55;;;25.77;;
30948;SDS011;17637;51.984;21.208;2024-02-21T07:37:30;52.00;;;25.77;;
30948;SDS011;17637;51.984;21.208;2024-02-21T07:40:05;46.50;;;24.55;;
30948;SDS011;17637;51.984;21.208;2024-02-21T07:42:37;44.28;;;23.92;;
30948;SDS011;17637;51.984;21.208;2024-02-21T07:45:09;44.78;;;24.30;;
30948;SDS011;17637;51.984;21.208;2024-02-21T07:47:42;44.25;;;24.35;;
30948;SDS011;17637;51.984;21.208;2024-02-21T07:50:14;52.80;;;24.52;;
30948;SDS011;17637;51.984;21.208;2024-02-21T07:52:46;43.40;;;23.65;;
30948;SDS011;17637;51.984;21.208;2024-02-21T07:55:18;45.58;;;24.17;;
30948;SDS011;17637;51.984;21.208;2024-02-21T07:57:50;45.88;;;22.33;;
30948;SDS011;17637;51.984;21.208;2024-02-21T08:00:22;44.47;;;23.55;;
30948;SDS011;17637;51.984;21.208;2024-02-21T08:02:54;48.70;;;23.27;;
30948;SDS011;17637;51.984;21.208;2024-02-21T08:05:26;45.03;;;21.83;;
30948;SDS011;17637;51.984;21.208;2024-02-21T08:07:58;46.17;;;19.98;;
30948;SDS011;17637;51.984;21.208;2024-02-21T08:10:30;36.67;;;19.63;;
30948;SDS011;17637;51.984;21.208;2024-02-21T08:13:02;38.72;;;18.77;;
30948;SDS011;17637;51.984;21.208;2024-02-21T08:15:34;45.10;;;21.40;;
30948;SDS011;17637;51.984;21.208;2024-02-21T08:18:07;41.58;;;21.05;;
30948;SDS011;17637;51.984;21.208;2024-02-21T08:20:39;40.88;;;18.85;;
30948;SDS011;17637;51.984;21.208;2024-02-21T08:23:11;34.78;;;19.55;;
30948;SDS011;17637;51.984;21.208;2024-02-21T08:25:43;36.70;;;18.55;;
30948;SDS011;17637;51.984;21.208;2024-02-21T08:28:15;41.70;;;18.70;;
30948;SDS011;17637;51.984;21.208;2024-02-21T08:30:47;35.65;;;18.73;;
30948;SDS011;17637;51.984;21.208;2024-02-21T08:33:22;36.72;;;18.45;;
30948;SDS011;17637;51.984;21.208;2024-02-21T08:35:56;34.55;;;18.55;;
30948;SDS011;17637;51.984;21.208;2024-02-21T08:38:28;34.28;;;18.75;;
30948;SDS011;17637;51.984;21.208;2024-02-21T08:41:00;34.97;;;18.70;;
30948;SDS011;17637;51.984;21.208;2024-02-21T08:43:32;35.67;;;19.40;;
30948;SDS011;17637;51.984;21.208;2024-02-21T08:46:06;38.50;;;20.42;;
30948;SDS011;17637;51.984;21.208;2024-02-21T08:48:38;36.92;;;17.42;;
30948;SDS011;17637;51.984;21.208;2024-02-21T08:51:10;41.45;;;18.38;;
30948;SDS011;17637;51.984;21.208;2024-02-21T08:53:43;37.60;;;19.40;;
30948;SDS011;17637;51.984;21.208;2024-02-21T08:56:15;41.15;;;19.10;;
30948;SDS011;17637;51.984;21.208;2024-02-21T08:58:47;39.88;;;19.08;;
30948;SDS011;17637;51.984;21.208;2024-02-21T09:01:19;39.33;;;21.00;;
30948;SDS011;17637;51.984;21.208;2024-02-21T09:03:52;34.00;;;18.95;;
30948;SDS011;17637;51.984;21.208;2024-02-21T09:06:25;45.50;;;21.92;;
30948;SDS011;17637;51.984;21.208;2024-02-21T09:08:59;46.33;;;22.27;;
30948;SDS011;17637;51.984;21.208;2024-02-21T09:11:31;45.97;;;21.70;;
30948;SDS011;17637;51.984;21.208;2024-02-21T09:14:03;39.33;;;20.77;;
30948;SDS011;17637;51.984;21.208;2024-02-21T09:16:35;40.38;;;19.63;;
30948;SDS011;17637;51.984;21.208;2024-02-21T09:19:07;42.20;;;21.67;;
30948;SDS011;17637;51.984;21.208;2024-02-21T09:21:42;48.70;;;21.98;;
30948;SDS011;17637;51.984;21.208;2024-02-21T09:24:14;37.00;;;19.17;;
30948;SDS011;17637;51.984;21.208;2024-02-21T09:26:46;41.58;;;18.25;;
30948;SDS011;17637;51.984;21.208;2024-02-21T09:29:21;34.38;;;18.13;;
30948;SDS011;17637;51.984;21.208;2024-02-21T09:31:57;43.10;;;20.55;;
30948;SDS011;17637;51.984;21.208;2024-02-21T09:34:29;40.80;;;19.40;;
30948;SDS011;17637;51.984;21.208;2024-02-21T09:37:01;38.33;;;17.25;;
30948;SDS011;17637;51.984;21.208;2024-02-21T09:39:33;32.40;;;17.55;;
30948;SDS011;17637;51.984;21.208;2024-02-21T09:42:06;34.25;;;16.65;;
30948;SDS011;17637;51.984;21.208;2024-02-21T09:44:41;32.90;;;15.70;;
30948;SDS011;17637;51.984;21.208;2024-02-21T09:47:27;31.13;;;15.80;;
30948;SDS011;17637;51.984;21.208;2024-02-21T09:50:11;36.05;;;16.52;;
30948;SDS011;17637;51.984;21.208;2024-02-21T09:52:45;36.63;;;17.40;;
30948;SDS011;17637;51.984;21.208;2024-02-21T09:55:19;31.05;;;14.95;;
30948;SDS011;17637;51.984;21.208;2024-02-21T09:57:53;38.50;;;15.27;;
30948;SDS011;17637;51.984;21.208;2024-02-21T10:00:25;35.83;;;16.35;;
30948;SDS011;17637;51.984;21.208;2024-02-21T10:02:58;27.30;;;13.48;;
30948;SDS011;17637;51.984;21.208;2024-02-21T10:05:30;33.15;;;14.48;;
30948;SDS011;17637;51.984;21.208;2024-02-21T10:08:03;32.13;;;14.20;;
30948;SDS011;17637;51.984;21.208;2024-02-21T10:10:42;30.77;;;13.77;;
30948;SDS011;17637;51.984;21.208;2024-02-21T10:13:24;30.13;;;13.52;;
30948;SDS011;17637;51.984;21.208;2024-02-21T10:18:40;28.00;;;13.20;;
30948;SDS011;17637;51.984;21.208;2024-02-21T10:21:12;32.72;;;15.18;;
30948;SDS011;17637;51.984;21.208;2024-02-21T10:23:45;25.20;;;13.05;;
30948;SDS011;17637;51.984;21.208;2024-02-21T10:26:21;33.92;;;15.13;;
30948;SDS011;17637;51.984;21.208;2024-02-21T10:28:54;34.33;;;15.43;;
30948;SDS011;17637;51.984;21.208;2024-02-21T10:31:27;33.03;;;12.93;;
30948;SDS011;17637;51.984;21.208;2024-02-21T10:34:00;31.65;;;14.52;;
30948;SDS011;17637;51.984;21.208;2024-02-21T10:36:35;33.00;;;13.68;;
30948;SDS011;17637;51.984;21.208;2024-02-21T10:39:07;28.98;;;13.05;;
30948;SDS011;17637;51.984;21.208;2024-02-21T10:41:40;28.85;;;14.30;;
30948;SDS011;17637;51.984;21.208;2024-02-21T10:44:14;32.90;;;14.93;;
30948;SDS011;17637;51.984;21.208;2024-02-21T10:46:48;33.42;;;13.82;;
30948;SDS011;17637;51.984;21.208;2024-02-21T10:49:24;34.30;;;14.18;;
30948;SDS011;17637;51.984;21.208;2024-02-21T10:52:27;33.15;;;14.20;;
30948;SDS011;17637;51.984;21.208;2024-02-21T10:54:55;24.13;;;11.32;;
30948;SDS011;17637;51.984;21.208;2024-02-21T10:57:33;28.23;;;12.40;;
30948;SDS011;17637;51.984;21.208;2024-02-21T11:00:06;26.08;;;12.10;;
30948;SDS011;17637;51.984;21.208;2024-02-21T11:02:41;29.63;;;13.50;;
30948;SDS011;17637;51.984;21.208;2024-02-21T11:05:14;36.70;;;14.13;;
30948;SDS011;17637;51.984;21.208;2024-02-21T11:07:48;30.98;;;12.60;;
30948;SDS011;17637;51.984;21.208;2024-02-21T11:10:20;30.45;;;14.63;;
30948;SDS011;17637;51.984;21.208;2024-02-21T11:13:08;30.70;;;13.75;;
30948;SDS011;17637;51.984;21.208;2024-02-21T11:15:41;36.88;;;15.45;;
30948;SDS011;17637;51.984;21.208;2024-02-21T11:18:22;30.27;;;14.80;;
30948;SDS011;17637;51.984;21.208;2024-02-21T11:20:55;32.17;;;14.25;;
30948;SDS011;17637;51.984;21.208;2024-02-21T11:23:27;25.55;;;14.95;;
30948;SDS011;17637;51.984;21.208;2024-02-21T11:26:08;31.25;;;14.65;;
30948;SDS011;17637;51.984;21.208;2024-02-21T11:28:41;33.80;;;14.63;;
30948;SDS011;17637;51.984;21.208;2024-02-21T11:31:15;37.05;;;15.15;;
30948;SDS011;17637;51.984;21.208;2024-02-21T11:33:47;33.92;;;16.85;;
30948;SDS011;17637;51.984;21.208;2024-02-21T11:36:26;32.45;;;15.15;;
30948;SDS011;17637;51.984;21.208;2024-02-21T11:39:04;34.58;;;17.55;;
30948;SDS011;17637;51.984;21.208;2024-02-21T11:41:37;32.47;;;16.60;;
30948;SDS011;17637;51.984;21.208;2024-02-21T11:44:09;28.83;;;15.75;;
30948;SDS011;17637;51.984;21.208;2024-02-21T11:46:41;35.92;;;16.30;;
30948;SDS011;17637;51.984;21.208;2024-02-21T11:49:13;35.35;;;17.23;;
30948;SDS011;17637;51.984;21.208;2024-02-21T11:51:46;36.70;;;17.63;;
30948;SDS011;17637;51.984;21.208;2024-02-21T11:54:18;32.22;;;17.30;;
30948;SDS011;17637;51.984;21.208;2024-02-21T11:56:50;43.00;;;19.00;;
30948;SDS011;17637;51.984;21.208;2024-02-21T11:59:21;40.13;;;18.35;;
30948;SDS011;17637;51.984;21.208;2024-02-21T12:01:53;32.45;;;18.27;;
30948;SDS011;17637;51.984;21.208;2024-02-21T12:04:25;33.55;;;18.23;;
30948;SDS011;17637;51.984;21.208;2024-02-21T12:06:58;38.35;;;19.40;;
30948;SDS011;17637;51.984;21.208;2024-02-21T12:09:30;40.42;;;19.48;;
30948;SDS011;17637;51.984;21.208;2024-02-21T12:12:03;30.55;;;18.00;;
30948;SDS011;17637;51.984;21.208;2024-02-21T12:14:37;40.65;;;20.40;;
30948;SDS011;17637;51.984;21.208;2024-02-21T12:17:09;33.50;;;18.08;;
30948;SDS011;17637;51.984;21.208;2024-02-21T12:19:42;37.30;;;18.77;;
30948;SDS011;17637;51.984;21.208;2024-02-21T12:22:18;36.40;;;19.63;;
30948;SDS011;17637;51.984;21.208;2024-02-21T12:24:50;46.75;;;21.20;;
30948;SDS011;17637;51.984;21.208;2024-02-21T12:27:22;43.35;;;21.17;;
30948;SDS011;17637;51.984;21.208;2024-02-21T12:29:55;38.80;;;20.65;;
30948;SDS011;17637;51.984;21.208;2024-02-21T12:32:27;43.58;;;23.15;;
30948;SDS011;17637;51.984;21.208;2024-02-21T12:34:59;38.60;;;21.23;;
30948;SDS011;17637;51.984;21.208;2024-02-21T12:37:32;43.40;;;23.25;;
30948;SDS011;17637;51.984;21.208;2024-02-21T12:40:08;52.67;;;23.50;;
30948;SDS011;17637;51.984;21.208;2024-02-21T12:42:42;43.67;;;23.65;;
30948;SDS011;17637;51.984;21.208;2024-02-21T12:45:14;44.25;;;20.23;;
30948;SDS011;17637;51.984;21.208;2024-02-21T12:47:47;44.65;;;21.70;;
30948;SDS011;17637;51.984;21.208;2024-02-21T12:50:19;46.78;;;21.35;;
30948;SDS011;17637;51.984;21.208;2024-02-21T12:52:51;38.72;;;19.52;;
30948;SDS011;17637;51.984;21.208;2024-02-21T12:55:24;38.75;;;19.98;;
30948;SDS011;17637;51.984;21.208;2024-02-21T12:57:55;48.85;;;23.25;;
30948;SDS011;17637;51.984;21.208;2024-02-21T13:00:28;46.95;;;22.88;;
30948;SDS011;17637;51.984;21.208;2024-02-21T13:03:00;46.80;;;25.98;;
30948;SDS011;17637;51.984;21.208;2024-02-21T13:05:32;44.33;;;21.92;;
30948;SDS011;17637;51.984;21.208;2024-02-21T13:08:05;52.28;;;29.20;;
30948;SDS011;17637;51.984;21.208;2024-02-21T13:10:38;40.28;;;21.67;;
30948;SDS011;17637;51.984;21.208;2024-02-21T13:13:10;42.47;;;21.55;;
30948;SDS011;17637;51.984;21.208;2024-02-21T13:15:43;43.03;;;20.42;;
30948;SDS011;17637;51.984;21.208;2024-02-21T13:18:15;32.30;;;18.45;;
30948;SDS011;17637;51.984;21.208;2024-02-21T13:20:47;41.03;;;20.70;;
30948;SDS011;17637;51.984;21.208;2024-02-21T13:23:20;32.08;;;18.23;;
30948;SDS011;17637;51.984;21.208;2024-02-21T13:25:54;42.08;;;21.33;;
30948;SDS011;17637;51.984;21.208;2024-02-21T13:28:26;74.53;;;37.28;;
30948;SDS011;17637;51.984;21.208;2024-02-21T13:30:59;56.50;;;31.52;;
30948;SDS011;17637;51.984;21.208;2024-02-21T13:33:31;48.65;;;27.60;;
30948;SDS011;17637;51.984;21.208;2024-02-21T13:36:03;52.65;;;24.38;;
30948;SDS011;17637;51.984;21.208;2024-02-21T13:38:35;39.30;;;21.63;;
30948;SDS011;17637;51.984;21.208;2024-02-21T13:41:07;58.00;;;26.73;;
30948;SDS011;17637;51.984;21.208;2024-02-21T13:43:39;44.45;;;22.67;;
30948;SDS011;17637;51.984;21.208;2024-02-21T13:46:11;54.67;;;26.50;;
30948;SDS011;17637;51.984;21.208;2024-02-21T13:48:43;39.92;;;21.98;;
30948;SDS011;17637;51.984;21.208;2024-02-21T13:51:15;38.67;;;19.65;;
30948;SDS011;17637;51.984;21.208;2024-02-21T13:53:48;44.25;;;20.92;;
30948;SDS011;17637;51.984;21.208;2024-02-21T13:56:20;43.70;;;20.05;;
30948;SDS011;17637;51.984;21.208;2024-02-21T13:58:52;45.25;;;21.02;;
30948;SDS011;17637;51.984;21.208;2024-02-21T14:01:24;42.05;;;19.75;;
30948;SDS011;17637;51.984;21.208;2024-02-21T14:03:56;48.67;;;22.40;;
30948;SDS011;17637;51.984;21.208;2024-02-21T14:06:28;50.88;;;27.80;;
30948;SDS011;17637;51.984;21.208;2024-02-21T14:09:00;44.80;;;24.15;;
30948;SDS011;17637;51.984;21.208;2024-02-21T14:11:32;38.00;;;20.35;;
30948;SDS011;17637;51.984;21.208;2024-02-21T14:14:04;41.15;;;18.48;;
30948;SDS011;17637;51.984;21.208;2024-02-21T14:16:36;35.67;;;17.42;;
30948;SDS011;17637;51.984;21.208;2024-02-21T14:19:08;40.38;;;18.67;;
30948;SDS011;17637;51.984;21.208;2024-02-21T14:21:41;36.38;;;19.15;;
30948;SDS011;17637;51.984;21.208;2024-02-21T14:24:13;36.53;;;18.13;;
30948;SDS011;17637;51.984;21.208;2024-02-21T14:26:45;44.25;;;21.67;;
30948;SDS011;17637;51.984;21.208;2024-02-21T14:29:17;36.85;;;20.25;;
30948;SDS011;17637;51.984;21.208;2024-02-21T14:31:49;39.63;;;19.63;;
30948;SDS011;17637;51.984;21.208;2024-02-21T14:34:21;39.30;;;19.60;;
30948;SDS011;17637;51.984;21.208;2024-02-21T14:36:53;31.00;;;17.00;;
30948;SDS011;17637;51.984;21.208;2024-02-21T14:39:25;35.05;;;18.48;;
30948;SDS011;17637;51.984;21.208;2024-02-21T14:41:57;31.73;;;16.13;;
30948;SDS011;17637;51.984;21.208;2024-02-21T14:44:29;46.53;;;18.50;;